createdAt,value
2019-04-07T00:01:20.672Z,10.17
2019-04-07T00:03:49.683Z,9.90
2019-04-07T00:06:19.076Z,9.03
2019-04-07T00:08:48.478Z,9.93
2019-04-07T00:11:17.518Z,10.30
2019-04-07T00:13:46.920Z,8.67
2019-04-07T00:16:15.964Z,10.07
2019-04-07T00:18:44.923Z,9.83
2019-04-07T00:21:13.930Z,8.80
2019-04-07T00:23:43.218Z,9.93
2019-04-07T00:26:12.863Z,8.63
2019-04-07T00:28:42.136Z,9.53
2019-04-07T00:31:11.478Z,9.87
2019-04-07T00:33:40.541Z,9.67
2019-04-07T00:36:09.551Z,9.20
2019-04-07T00:38:39.397Z,9.37
2019-04-07T00:41:08.876Z,10.43
2019-04-07T00:43:39.501Z,8.43
2019-04-07T00:46:08.841Z,10.43
2019-04-07T00:48:37.850Z,9.57
2019-04-07T00:51:06.895Z,9.57
2019-04-07T00:53:35.715Z,8.70
2019-04-07T00:56:05.114Z,8.53
2019-04-07T00:58:34.706Z,8.57
2019-04-07T01:01:04.252Z,9.00
2019-04-07T01:03:33.715Z,9.27
2019-04-07T01:06:03.349Z,8.97
2019-04-07T01:08:32.627Z,9.50
2019-04-07T01:11:01.597Z,9.07
2019-04-07T01:13:30.776Z,9.20
2019-04-07T01:16:00.257Z,9.37
2019-04-07T01:18:33.838Z,8.97
2019-04-07T01:21:03.731Z,9.47
2019-04-07T01:23:32.779Z,9.37
2019-04-07T01:26:02.000Z,9.03
2019-04-07T01:28:31.651Z,9.67
2019-04-07T01:31:00.666Z,9.27
2019-04-07T01:33:29.629Z,9.60
2019-04-07T01:35:58.580Z,10.13
2019-04-07T01:38:27.914Z,8.83
2019-04-07T01:41:03.274Z,10.03
2019-04-07T01:43:37.356Z,9.63
2019-04-07T01:46:25.441Z,9.10
2019-04-07T01:49:12.797Z,9.70
2019-04-07T01:51:51.079Z,9.80
2019-04-07T01:54:48.252Z,9.60
2019-04-07T01:57:36.466Z,8.60
2019-04-07T02:00:21.936Z,8.97
2019-04-07T02:02:57.474Z,8.90
2019-04-07T02:05:39.215Z,9.43
2019-04-07T02:08:18.942Z,9.63
2019-04-07T02:10:58.221Z,9.10
2019-04-07T02:13:45.487Z,10.20
2019-04-07T02:16:36.819Z,9.40
2019-04-07T02:19:14.054Z,8.83
2019-04-07T02:21:50.370Z,9.13
2019-04-07T02:24:25.526Z,9.10
2019-04-07T02:27:05.252Z,9.30
2019-04-07T02:29:47.806Z,8.80
2019-04-07T02:32:35.633Z,9.50
2019-04-07T02:35:31.982Z,9.13
2019-04-07T02:38:38.953Z,8.93
2019-04-07T02:41:31.288Z,9.00
2019-04-07T02:44:22.364Z,10.60
2019-04-07T02:47:09.843Z,9.67
2019-04-07T02:50:10.643Z,9.33
2019-04-07T02:53:05.597Z,8.97
2019-04-07T02:55:42.016Z,8.67
2019-04-07T02:58:42.789Z,9.47
2019-04-07T03:01:24.099Z,8.40
2019-04-07T03:04:19.592Z,9.57
2019-04-07T03:07:11.750Z,8.20
2019-04-07T03:09:56.810Z,8.43
2019-04-07T03:12:39.835Z,8.27
2019-04-07T03:15:24.904Z,8.80
2019-04-07T03:18:12.858Z,8.93
2019-04-07T03:20:55.852Z,9.07
2019-04-07T03:23:44.158Z,8.93
2019-04-07T03:26:32.481Z,9.77
2019-04-07T03:29:18.224Z,10.27
2019-04-07T03:31:59.650Z,9.37
2019-04-07T03:34:46.805Z,9.80
2019-04-07T03:37:43.006Z,9.67
2019-04-07T03:40:19.938Z,8.03
2019-04-07T03:43:02.893Z,9.03
2019-04-07T03:46:00.450Z,9.33
2019-04-07T03:48:36.980Z,8.77
2019-04-07T03:51:31.893Z,9.13
2019-04-07T03:54:10.135Z,9.27
2019-04-07T03:56:52.999Z,10.00
2019-04-07T03:59:56.485Z,8.83
2019-04-07T04:02:42.375Z,8.53
2019-04-07T04:05:39.798Z,9.47
2019-04-07T04:08:14.823Z,9.30
2019-04-07T04:10:51.635Z,9.60
2019-04-07T04:13:27.358Z,9.67
2019-04-07T04:16:10.424Z,9.33
2019-04-07T04:18:40.553Z,9.43
2019-04-07T04:21:09.625Z,10.03
2019-04-07T04:23:41.542Z,9.70
2019-04-07T04:26:09.622Z,10.07
2019-04-07T04:28:39.029Z,9.70
2019-04-07T04:31:08.267Z,9.90
2019-04-07T04:33:37.819Z,9.37
2019-04-07T04:36:08.031Z,10.40
2019-04-07T04:38:37.124Z,9.60
2019-04-07T04:41:06.871Z,9.30
2019-04-07T04:43:36.169Z,9.30
2019-04-07T04:46:08.609Z,9.20
2019-04-07T04:48:36.110Z,10.23
2019-04-07T04:51:05.372Z,10.23
2019-04-07T04:53:34.957Z,9.80
2019-04-07T04:56:03.947Z,10.33
2019-04-07T04:58:32.843Z,9.93
2019-04-07T05:01:03.051Z,10.17
2019-04-07T05:03:32.775Z,10.13
2019-04-07T05:06:02.386Z,9.30
2019-04-07T05:08:32.325Z,9.27
2019-04-07T05:11:01.637Z,9.87
2019-04-07T05:13:30.698Z,9.47
2019-04-07T05:15:59.656Z,10.77
2019-04-07T05:18:29.169Z,9.23
2019-04-07T05:20:58.264Z,10.17
2019-04-07T05:23:28.352Z,9.53
2019-04-07T05:25:58.108Z,10.10
2019-04-07T05:28:27.750Z,9.13
2019-04-07T05:30:56.965Z,9.13
2019-04-07T05:33:26.679Z,9.87
2019-04-07T05:35:55.789Z,10.40
2019-04-07T05:38:25.607Z,10.37
2019-04-07T05:40:55.335Z,9.87
2019-04-07T05:43:24.210Z,9.83
2019-04-07T05:45:53.054Z,9.73
2019-04-07T05:48:22.752Z,10.33
2019-04-07T05:50:52.148Z,9.73
2019-04-07T05:53:21.687Z,10.27
2019-04-07T05:55:53.790Z,11.30
2019-04-07T05:58:21.337Z,10.50
2019-04-07T06:00:50.540Z,10.20
2019-04-07T06:03:20.359Z,11.03
2019-04-07T06:05:51.153Z,10.37
2019-04-07T06:08:27.988Z,10.57
2019-04-07T06:10:51.092Z,10.17
2019-04-07T06:13:20.099Z,11.10
2019-04-07T06:15:51.147Z,11.37
2019-04-07T06:18:20.118Z,10.07
2019-04-07T06:20:50.366Z,9.87
2019-04-07T06:23:22.117Z,11.03
2019-04-07T06:25:50.187Z,9.20
2019-04-07T06:28:19.403Z,10.33
2019-04-07T06:30:48.390Z,9.73
2019-04-07T06:33:17.502Z,9.27
2019-04-07T06:35:47.674Z,10.10
2019-04-07T06:38:16.771Z,9.37
2019-04-07T06:40:46.077Z,9.87
2019-04-07T06:43:15.634Z,9.17
2019-04-07T06:45:52.764Z,9.47
2019-04-07T06:48:22.214Z,9.17
2019-04-07T06:51:13.977Z,9.17
2019-04-07T06:54:03.283Z,8.80
2019-04-07T06:56:57.298Z,7.83
2019-04-07T06:59:34.647Z,8.87
2019-04-07T07:02:30.212Z,9.53
2019-04-07T07:05:07.352Z,8.73
2019-04-07T07:07:57.848Z,7.67
2019-04-07T07:10:40.069Z,8.70
2019-04-07T07:13:36.817Z,8.47
2019-04-07T07:16:25.019Z,8.90
2019-04-07T07:19:29.289Z,9.13
2019-04-07T07:22:29.992Z,9.37
2019-04-07T07:25:00.277Z,8.60
2019-04-07T07:27:29.617Z,8.63
2019-04-07T07:29:58.442Z,7.90
2019-04-07T07:32:28.094Z,8.60
2019-04-07T07:34:57.606Z,8.13
2019-04-07T07:37:28.001Z,8.10
2019-04-07T07:39:57.221Z,7.43
2019-04-07T07:42:26.756Z,8.67
2019-04-07T07:44:56.020Z,7.63
2019-04-07T07:47:25.374Z,8.40
2019-04-07T07:49:55.053Z,7.90
2019-04-07T07:52:24.280Z,7.73
2019-04-07T07:54:53.639Z,7.40
2019-04-07T07:57:24.070Z,7.90
2019-04-07T07:59:53.529Z,7.87
2019-04-07T08:02:22.595Z,7.97
2019-04-07T08:04:52.801Z,8.23
2019-04-07T08:07:21.987Z,7.63
2019-04-07T08:09:53.899Z,8.17
2019-04-07T08:12:21.632Z,8.47
2019-04-07T08:14:54.087Z,8.13
2019-04-07T08:17:22.579Z,8.13
2019-04-07T08:19:51.490Z,8.37
2019-04-07T08:22:30.680Z,7.57
2019-04-07T08:24:52.015Z,7.63
2019-04-07T08:27:21.658Z,8.27
2019-04-07T08:29:51.041Z,8.57
2019-04-07T08:32:22.651Z,8.70
2019-04-07T08:34:51.492Z,7.17
2019-04-07T08:37:21.798Z,7.40
2019-04-07T08:39:52.504Z,7.13
2019-04-07T08:42:28.695Z,7.50
2019-04-07T08:44:59.713Z,6.90
2019-04-07T08:47:28.959Z,7.00
2019-04-07T08:49:58.125Z,7.47
2019-04-07T08:52:27.200Z,7.40
2019-04-07T08:54:56.630Z,6.73
2019-04-07T08:57:29.406Z,6.40
2019-04-07T08:59:57.558Z,7.67
2019-04-07T09:02:29.329Z,7.03
2019-04-07T09:05:00.279Z,6.77
2019-04-07T09:07:32.921Z,6.13
2019-04-07T09:10:00.962Z,7.63
2019-04-07T09:12:31.325Z,6.40
2019-04-07T09:15:03.973Z,6.93
2019-04-07T09:17:48.711Z,6.10
2019-04-07T09:20:40.891Z,6.43
2019-04-07T09:23:14.526Z,5.90
2019-04-07T09:26:04.004Z,5.53
2019-04-07T09:28:57.412Z,5.00
2019-04-07T09:31:37.378Z,5.90
2019-04-07T09:34:24.607Z,5.87
2019-04-07T09:36:59.160Z,6.00
2019-04-07T09:39:56.747Z,5.93
2019-04-07T09:42:32.287Z,6.03
2019-04-07T09:45:22.776Z,4.50
2019-04-07T09:48:29.537Z,4.10
2019-04-07T09:51:17.733Z,3.83
2019-04-07T09:53:56.655Z,3.70
2019-04-07T09:56:46.110Z,3.53
2019-04-07T09:59:28.508Z,4.30
2019-04-07T10:02:15.629Z,4.20
2019-04-07T10:05:06.573Z,3.53
2019-04-07T10:07:57.961Z,3.97
2019-04-07T10:10:39.842Z,3.60
2019-04-07T10:13:16.771Z,3.47
2019-04-07T10:16:08.001Z,3.63
2019-04-07T10:19:14.083Z,3.47
2019-04-07T10:22:21.124Z,3.23
2019-04-07T10:24:57.155Z,3.23
2019-04-07T10:27:44.094Z,3.47
2019-04-07T10:30:44.708Z,2.97
2019-04-07T10:33:31.662Z,2.80
2019-04-07T10:36:11.250Z,2.57
2019-04-07T10:39:12.033Z,2.70
2019-04-07T10:42:09.429Z,2.33
2019-04-07T10:44:54.653Z,3.10
2019-04-07T10:47:48.850Z,2.53
2019-04-07T10:50:33.612Z,2.70
2019-04-07T10:53:24.568Z,2.50
2019-04-07T10:56:25.507Z,2.40
2019-04-07T10:59:16.145Z,2.40
2019-04-07T11:02:10.279Z,2.50
2019-04-07T11:05:00.828Z,2.57
2019-04-07T11:07:58.739Z,2.80
2019-04-07T11:10:49.816Z,3.10
2019-04-07T11:13:36.466Z,2.37
2019-04-07T11:16:28.447Z,2.77
2019-04-07T11:19:36.144Z,2.57
2019-04-07T11:22:21.964Z,2.70
2019-04-07T11:25:16.513Z,2.80
2019-04-07T11:28:03.040Z,2.30
2019-04-07T11:30:43.618Z,2.60
2019-04-07T11:33:20.938Z,2.80
2019-04-07T11:36:10.650Z,2.40
2019-04-07T11:39:02.488Z,2.90
2019-04-07T11:41:52.651Z,2.67
2019-04-07T11:44:38.695Z,2.70
2019-04-07T11:47:17.601Z,2.63
2019-04-07T11:49:53.960Z,2.30
2019-04-07T11:52:48.354Z,2.33
2019-04-07T11:55:34.928Z,2.40
2019-04-07T11:58:33.679Z,2.43
2019-04-07T12:01:21.347Z,2.63
2019-04-07T12:04:03.964Z,2.73
2019-04-07T12:06:46.588Z,2.97
2019-04-07T12:09:34.866Z,2.50
2019-04-07T12:12:18.888Z,2.70
2019-04-07T12:14:57.792Z,2.53
2019-04-07T12:17:43.598Z,2.40
2019-04-07T12:20:35.434Z,2.40
2019-04-07T12:23:29.408Z,2.40
2019-04-07T12:26:14.388Z,2.43
2019-04-07T12:29:10.785Z,2.20
2019-04-07T12:31:51.032Z,2.63
2019-04-07T12:34:35.523Z,2.40
2019-04-07T12:37:26.299Z,2.60
2019-04-07T12:40:12.939Z,2.20
2019-04-07T12:42:59.755Z,2.67
2019-04-07T12:45:46.812Z,2.53
2019-04-07T12:48:30.649Z,1.93
2019-04-07T12:51:06.241Z,2.90
2019-04-07T12:53:42.232Z,3.10
2019-04-07T12:56:25.388Z,2.63
2019-04-07T12:59:17.957Z,2.40
2019-04-07T13:01:53.226Z,2.40
2019-04-07T13:04:40.782Z,2.13
2019-04-07T13:07:19.428Z,2.63
2019-04-07T13:10:08.497Z,2.27
2019-04-07T13:12:48.580Z,2.07
2019-04-07T13:15:35.566Z,2.27
2019-04-07T13:18:22.948Z,2.13
2019-04-07T13:21:10.189Z,2.40
2019-04-07T13:23:58.267Z,2.57
2019-04-07T13:26:56.276Z,2.70
2019-04-07T13:29:40.923Z,2.43
2019-04-07T13:32:39.371Z,2.57
2019-04-07T13:35:27.105Z,2.87
2019-04-07T13:38:17.574Z,2.40
2019-04-07T13:41:16.156Z,2.30
2019-04-07T13:44:04.808Z,2.90
2019-04-07T13:46:50.739Z,3.00
2019-04-07T13:49:58.022Z,2.20
2019-04-07T13:52:39.749Z,2.70
2019-04-07T13:55:26.036Z,2.60
2019-04-07T13:58:20.789Z,2.57
2019-04-07T14:01:17.978Z,2.97
2019-04-07T14:04:14.198Z,2.90
2019-04-07T14:06:54.501Z,2.77
2019-04-07T14:09:34.223Z,2.47
2019-04-07T14:12:33.409Z,2.63
2019-04-07T14:15:17.270Z,2.80
2019-04-07T14:17:53.579Z,2.67
2019-04-07T14:20:42.413Z,2.93
2019-04-07T14:23:18.663Z,2.93
2019-04-07T14:25:55.359Z,2.60
2019-04-07T14:28:34.602Z,2.77
2019-04-07T14:31:17.462Z,2.50
2019-04-07T14:34:05.438Z,2.80
2019-04-07T14:37:08.799Z,2.80
2019-04-07T14:39:43.425Z,3.00
2019-04-07T14:42:31.649Z,2.77
2019-04-07T14:45:12.126Z,3.30
2019-04-07T14:48:00.981Z,2.50
2019-04-07T14:50:36.340Z,2.50
2019-04-07T14:53:18.143Z,2.47
2019-04-07T14:56:04.589Z,2.40
2019-04-07T14:58:53.434Z,2.90
2019-04-07T15:01:31.822Z,2.50
2019-04-07T15:04:01.124Z,3.30
2019-04-07T15:06:33.268Z,2.53
2019-04-07T15:09:16.400Z,3.00
2019-04-07T15:12:08.926Z,3.30
2019-04-07T15:14:33.826Z,2.67
2019-04-07T15:17:03.574Z,3.73
2019-04-07T15:19:33.926Z,3.00
2019-04-07T15:22:04.218Z,3.10
2019-04-07T15:24:35.894Z,3.70
2019-04-07T15:27:05.830Z,3.03
2019-04-07T15:29:38.634Z,3.37
2019-04-07T15:32:07.255Z,3.40
2019-04-07T15:34:39.575Z,3.47
2019-04-07T15:37:07.856Z,3.20
2019-04-07T15:39:38.279Z,3.57
2019-04-07T15:42:09.322Z,3.30
2019-04-07T15:44:39.698Z,3.03
2019-04-07T15:47:09.348Z,3.93
2019-04-07T15:49:38.787Z,4.07
2019-04-07T15:52:08.959Z,3.63
2019-04-07T15:54:39.099Z,3.80
2019-04-07T15:57:08.843Z,3.50
2019-04-07T15:59:38.227Z,3.17
2019-04-07T16:02:10.043Z,3.40
2019-04-07T16:04:38.496Z,3.47
2019-04-07T16:07:08.104Z,3.07
2019-04-07T16:09:47.877Z,3.60
2019-04-07T16:12:08.036Z,3.77
2019-04-07T16:14:37.439Z,3.70
2019-04-07T16:17:09.599Z,4.10
2019-04-07T16:19:42.526Z,4.00
2019-04-07T16:22:12.058Z,3.60
2019-04-07T16:24:39.407Z,4.17
2019-04-07T16:27:08.981Z,4.10
2019-04-07T16:29:38.672Z,3.90
2019-04-07T16:32:08.160Z,4.20
2019-04-07T16:34:39.020Z,3.60
2019-04-07T16:37:08.335Z,4.13
2019-04-07T16:39:37.632Z,3.77
2019-04-07T16:42:06.687Z,3.80
2019-04-07T16:44:37.583Z,3.63
2019-04-07T16:47:18.523Z,4.27
2019-04-07T16:49:37.049Z,4.20
2019-04-07T16:52:06.794Z,3.73
2019-04-07T16:54:36.198Z,3.90
2019-04-07T16:57:06.283Z,3.73
2019-04-07T16:59:36.648Z,4.47
2019-04-07T17:02:08.038Z,4.23
2019-04-07T17:04:36.980Z,4.17
2019-04-07T17:07:12.051Z,4.20
2019-04-07T17:09:36.722Z,5.17
2019-04-07T17:12:09.497Z,5.23
2019-04-07T17:14:37.501Z,5.13
2019-04-07T17:17:07.038Z,4.97
2019-04-07T17:19:36.015Z,4.47
2019-04-07T17:22:05.348Z,4.73
2019-04-07T17:24:34.558Z,4.27
2019-04-07T17:27:04.592Z,4.57
2019-04-07T17:29:34.246Z,4.63
2019-04-07T17:32:04.889Z,4.57
2019-04-07T17:34:35.390Z,4.27
2019-04-07T17:37:05.272Z,4.10
2019-04-07T17:39:40.513Z,3.97
2019-04-07T17:42:14.298Z,4.60
2019-04-07T17:44:55.359Z,4.60
2019-04-07T17:47:52.291Z,4.77
2019-04-07T17:50:43.099Z,4.20
2019-04-07T17:53:29.781Z,4.30
2019-04-07T17:56:20.110Z,4.27
2019-04-07T17:59:16.468Z,4.70
2019-04-07T18:02:02.438Z,4.93
2019-04-07T18:04:53.776Z,4.87
2019-04-07T18:07:39.473Z,4.43
2019-04-07T18:10:30.707Z,4.30
2019-04-07T18:13:21.799Z,3.93
2019-04-07T18:16:19.979Z,5.23
2019-04-07T18:19:11.913Z,4.33
2019-04-07T18:22:02.840Z,4.83
2019-04-07T18:24:42.761Z,4.73
2019-04-07T18:27:31.802Z,5.10
2019-04-07T18:30:29.833Z,4.57
2019-04-07T18:33:05.431Z,4.60
2019-04-07T18:36:03.313Z,4.37
2019-04-07T18:39:04.635Z,4.30
2019-04-07T18:41:42.489Z,4.80
2019-04-07T18:44:41.316Z,3.97
2019-04-07T18:47:35.081Z,4.23
2019-04-07T18:50:24.012Z,4.70
2019-04-07T18:53:27.719Z,4.43
2019-04-07T18:56:09.855Z,4.67
2019-04-07T18:58:59.922Z,4.87
2019-04-07T19:01:46.973Z,5.27
2019-04-07T19:04:38.081Z,5.50
2019-04-07T19:07:22.481Z,5.00
2019-04-07T19:10:13.033Z,4.77
2019-04-07T19:12:49.534Z,5.17
2019-04-07T19:15:37.097Z,4.47
2019-04-07T19:18:23.863Z,5.33
2019-04-07T19:21:13.542Z,4.87
2019-04-07T19:24:04.431Z,5.50
2019-04-07T19:27:15.062Z,5.50
2019-04-07T19:29:57.372Z,5.67
2019-04-07T19:32:42.308Z,5.40
2019-04-07T19:35:34.613Z,5.57
2019-04-07T19:38:08.053Z,4.83
2019-04-07T19:41:02.838Z,5.37
2019-04-07T19:43:48.063Z,5.23
2019-04-07T19:46:34.842Z,5.53
2019-04-07T19:49:20.422Z,6.00
2019-04-07T19:52:09.100Z,4.97
2019-04-07T19:54:53.370Z,5.43
2019-04-07T19:57:29.934Z,5.73
2019-04-07T20:00:22.220Z,5.37
2019-04-07T20:03:09.651Z,6.00
2019-04-07T20:06:00.595Z,5.33
2019-04-07T20:09:05.053Z,6.03
2019-04-07T20:11:49.625Z,4.97
2019-04-07T20:14:47.352Z,5.77
2019-04-07T20:17:29.451Z,5.37
2019-04-07T20:20:15.090Z,5.73
2019-04-07T20:22:56.295Z,5.50
2019-04-07T20:25:46.193Z,5.87
2019-04-07T20:28:21.571Z,5.47
2019-04-07T20:31:05.888Z,5.63
2019-04-07T20:33:47.554Z,5.27
2019-04-07T20:36:27.722Z,6.20
2019-04-07T20:39:09.510Z,5.80
2019-04-07T20:41:56.781Z,5.53
2019-04-07T20:44:39.557Z,6.10
2019-04-07T20:47:28.307Z,6.30
2019-04-07T20:50:16.436Z,6.40
2019-04-07T20:53:22.164Z,5.73
2019-04-07T20:56:09.258Z,5.87
2019-04-07T20:59:05.725Z,6.10
2019-04-07T21:02:04.185Z,5.93
2019-04-07T21:04:41.769Z,5.83
2019-04-07T21:07:29.861Z,6.17
2019-04-07T21:10:19.076Z,5.87
2019-04-07T21:13:16.727Z,6.00
2019-04-07T21:15:55.347Z,6.37
2019-04-07T21:18:42.679Z,6.17
2019-04-07T21:21:32.282Z,6.90
2019-04-07T21:24:27.235Z,6.47
2019-04-07T21:27:03.811Z,6.37
2019-04-07T21:29:50.474Z,6.87
2019-04-07T21:32:41.395Z,6.47
2019-04-07T21:35:31.151Z,6.60
2019-04-07T21:38:29.765Z,6.53
2019-04-07T21:41:16.883Z,6.83
2019-04-07T21:44:04.076Z,6.17
2019-04-07T21:46:58.043Z,6.67
2019-04-07T21:49:46.539Z,6.57
2019-04-07T21:52:37.778Z,5.83
2019-04-07T21:55:29.633Z,7.22
2019-04-07T21:58:05.201Z,6.43
2019-04-07T22:00:56.466Z,6.50
2019-04-07T22:03:37.497Z,7.37
2019-04-07T22:06:29.316Z,6.50
2019-04-07T22:09:15.892Z,7.40
2019-04-07T22:11:45.038Z,7.50
2019-04-07T22:14:14.946Z,6.50
2019-04-07T22:16:44.752Z,7.20
2019-04-07T22:19:15.403Z,6.13
2019-04-07T22:21:44.561Z,7.40
2019-04-07T22:24:13.484Z,6.67
2019-04-07T22:26:46.177Z,7.50
2019-04-07T22:29:13.244Z,6.77
2019-04-07T22:31:51.519Z,6.83
2019-04-07T22:34:20.813Z,6.80
2019-04-07T22:36:49.942Z,6.23
2019-04-07T22:39:19.332Z,6.50
2019-04-07T22:41:48.850Z,7.70
2019-04-07T22:44:19.938Z,6.70
2019-04-07T22:46:51.925Z,7.00
2019-04-07T22:49:19.830Z,7.40
2019-04-07T22:51:49.781Z,7.30
2019-04-07T22:54:19.709Z,7.27
2019-04-07T22:56:49.004Z,6.77
2019-04-07T22:59:17.945Z,6.63
2019-04-07T23:01:47.329Z,6.30
2019-04-07T23:04:16.393Z,6.60
2019-04-07T23:06:45.311Z,7.87
2019-04-07T23:09:14.241Z,7.40
2019-04-07T23:11:44.105Z,6.90
2019-04-07T23:14:13.614Z,7.23
2019-04-07T23:16:42.463Z,7.33
2019-04-07T23:19:11.797Z,6.83
2019-04-07T23:21:41.715Z,7.60
2019-04-07T23:24:10.957Z,7.57
2019-04-07T23:26:40.554Z,6.73
2019-04-07T23:29:10.042Z,6.73
2019-04-07T23:31:40.432Z,7.43
2019-04-07T23:34:10.553Z,6.77
2019-04-07T23:36:39.587Z,6.73
2019-04-07T23:39:08.590Z,7.20
2019-04-07T23:41:37.406Z,6.97
2019-04-07T23:44:07.257Z,6.57
2019-04-07T23:46:36.333Z,7.77
2019-04-07T23:49:05.778Z,7.70
2019-04-07T23:51:35.149Z,7.37
2019-04-07T23:54:11.753Z,6.93
2019-04-07T23:56:43.487Z,6.97
2019-04-07T23:59:12.821Z,7.47
